sensor_id;sensor_type;location;lat;lon;timestamp;P1;durP1;ratioP1;P2;durP2;ratioP2
46266;SDS011;31998;48.798;15.066;2022-07-10T00:01:29;31.47;;;4.40;;
46266;SDS011;31998;48.798;15.066;2022-07-10T00:03:55;2.87;;;2.77;;
46266;SDS011;31998;48.798;15.066;2022-07-10T00:06:20;12.33;;;3.13;;
46266;SDS011;31998;48.798;15.066;2022-07-10T00:08:46;3.50;;;3.40;;
46266;SDS011;31998;48.798;15.066;2022-07-10T00:11:11;4.60;;;4.47;;
46266;SDS011;31998;48.798;15.066;2022-07-10T00:13:37;52.80;;;4.60;;
46266;SDS011;31998;48.798;15.066;2022-07-10T00:16:03;3.47;;;3.27;;
46266;SDS011;31998;48.798;15.066;2022-07-10T00:18:28;169.10;;;6.87;;
46266;SDS011;31998;48.798;15.066;2022-07-10T00:20:54;195.83;;;7.57;;
46266;SDS011;31998;48.798;15.066;2022-07-10T00:23:19;43.40;;;3.40;;
46266;SDS011;31998;48.798;15.066;2022-07-10T00:25:45;106.97;;;4.93;;
46266;SDS011;31998;48.798;15.066;2022-07-10T00:28:10;4.23;;;4.13;;
46266;SDS011;31998;48.798;15.066;2022-07-10T00:30:36;12.30;;;6.20;;
46266;SDS011;31998;48.798;15.066;2022-07-10T00:33:02;7.57;;;6.80;;
46266;SDS011;31998;48.798;15.066;2022-07-10T00:35:28;9.13;;;7.13;;
46266;SDS011;31998;48.798;15.066;2022-07-10T00:37:54;12.50;;;8.03;;
46266;SDS011;31998;48.798;15.066;2022-07-10T00:40:19;10.97;;;7.30;;
46266;SDS011;31998;48.798;15.066;2022-07-10T00:42:45;16.07;;;8.50;;
46266;SDS011;31998;48.798;15.066;2022-07-10T00:45:10;8.70;;;8.00;;
46266;SDS011;31998;48.798;15.066;2022-07-10T00:47:36;11.00;;;7.07;;
46266;SDS011;31998;48.798;15.066;2022-07-10T00:50:02;14.00;;;7.90;;
46266;SDS011;31998;48.798;15.066;2022-07-10T00:52:28;13.00;;;7.20;;
46266;SDS011;31998;48.798;15.066;2022-07-10T00:54:55;6.47;;;5.97;;
46266;SDS011;31998;48.798;15.066;2022-07-10T00:57:21;8.80;;;7.10;;
46266;SDS011;31998;48.798;15.066;2022-07-10T00:59:48;7.63;;;7.03;;
46266;SDS011;31998;48.798;15.066;2022-07-10T01:02:14;7.87;;;7.17;;
46266;SDS011;31998;48.798;15.066;2022-07-10T01:04:41;7.37;;;6.77;;
46266;SDS011;31998;48.798;15.066;2022-07-10T01:07:07;16.33;;;5.87;;
46266;SDS011;31998;48.798;15.066;2022-07-10T01:09:33;10.53;;;6.70;;
46266;SDS011;31998;48.798;15.066;2022-07-10T01:12:02;6.27;;;5.97;;
46266;SDS011;31998;48.798;15.066;2022-07-10T01:14:29;6.20;;;5.60;;
46266;SDS011;31998;48.798;15.066;2022-07-10T01:16:55;8.67;;;6.70;;
46266;SDS011;31998;48.798;15.066;2022-07-10T01:19:21;5.80;;;5.40;;
46266;SDS011;31998;48.798;15.066;2022-07-10T01:21:47;8.50;;;5.90;;
46266;SDS011;31998;48.798;15.066;2022-07-10T01:24:12;5.50;;;5.27;;
46266;SDS011;31998;48.798;15.066;2022-07-10T01:26:38;5.40;;;5.10;;
46266;SDS011;31998;48.798;15.066;2022-07-10T01:29:07;5.87;;;5.57;;
46266;SDS011;31998;48.798;15.066;2022-07-10T01:31:34;6.17;;;5.57;;
46266;SDS011;31998;48.798;15.066;2022-07-10T01:34:00;5.90;;;5.60;;
46266;SDS011;31998;48.798;15.066;2022-07-10T01:36:26;12.10;;;7.07;;
46266;SDS011;31998;48.798;15.066;2022-07-10T01:38:54;15.10;;;6.37;;
46266;SDS011;31998;48.798;15.066;2022-07-10T01:41:21;7.73;;;6.90;;
46266;SDS011;31998;48.798;15.066;2022-07-10T01:43:47;7.50;;;6.80;;
46266;SDS011;31998;48.798;15.066;2022-07-10T01:46:13;7.53;;;6.90;;
46266;SDS011;31998;48.798;15.066;2022-07-10T01:48:39;6.93;;;6.43;;
46266;SDS011;31998;48.798;15.066;2022-07-10T01:51:05;6.77;;;6.37;;
46266;SDS011;31998;48.798;15.066;2022-07-10T01:53:32;12.37;;;6.10;;
46266;SDS011;31998;48.798;15.066;2022-07-10T01:55:57;6.57;;;5.87;;
46266;SDS011;31998;48.798;15.066;2022-07-10T01:58:25;6.57;;;5.83;;
46266;SDS011;31998;48.798;15.066;2022-07-10T02:00:50;7.17;;;6.57;;
46266;SDS011;31998;48.798;15.066;2022-07-10T02:03:16;6.07;;;5.77;;
46266;SDS011;31998;48.798;15.066;2022-07-10T02:06:00;6.60;;;6.00;;
46266;SDS011;31998;48.798;15.066;2022-07-10T02:08:25;7.10;;;6.50;;
46266;SDS011;31998;48.798;15.066;2022-07-10T02:10:50;6.50;;;6.10;;
46266;SDS011;31998;48.798;15.066;2022-07-10T02:13:16;7.10;;;6.60;;
46266;SDS011;31998;48.798;15.066;2022-07-10T02:15:45;7.03;;;6.43;;
46266;SDS011;31998;48.798;15.066;2022-07-10T02:18:14;7.03;;;6.30;;
46266;SDS011;31998;48.798;15.066;2022-07-10T02:20:40;8.07;;;6.73;;
46266;SDS011;31998;48.798;15.066;2022-07-10T02:23:05;7.33;;;6.60;;
46266;SDS011;31998;48.798;15.066;2022-07-10T02:25:34;7.57;;;7.07;;
46266;SDS011;31998;48.798;15.066;2022-07-10T02:27:59;7.30;;;5.90;;
46266;SDS011;31998;48.798;15.066;2022-07-10T02:30:25;8.00;;;7.30;;
46266;SDS011;31998;48.798;15.066;2022-07-10T02:32:51;7.00;;;6.57;;
46266;SDS011;31998;48.798;15.066;2022-07-10T02:35:16;6.60;;;6.00;;
46266;SDS011;31998;48.798;15.066;2022-07-10T02:37:42;9.43;;;6.00;;
46266;SDS011;31998;48.798;15.066;2022-07-10T02:40:08;6.93;;;6.27;;
46266;SDS011;31998;48.798;15.066;2022-07-10T02:42:33;7.40;;;6.80;;
46266;SDS011;31998;48.798;15.066;2022-07-10T02:44:59;8.40;;;6.50;;
46266;SDS011;31998;48.798;15.066;2022-07-10T02:47:24;17.80;;;7.27;;
46266;SDS011;31998;48.798;15.066;2022-07-10T02:49:49;7.07;;;6.67;;
46266;SDS011;31998;48.798;15.066;2022-07-10T02:52:15;9.00;;;6.50;;
46266;SDS011;31998;48.798;15.066;2022-07-10T02:54:40;7.33;;;6.70;;
46266;SDS011;31998;48.798;15.066;2022-07-10T02:57:06;8.77;;;7.97;;
46266;SDS011;31998;48.798;15.066;2022-07-10T02:59:31;7.30;;;6.90;;
46266;SDS011;31998;48.798;15.066;2022-07-10T03:01:56;7.47;;;6.73;;
46266;SDS011;31998;48.798;15.066;2022-07-10T03:04:22;9.60;;;8.27;;
46266;SDS011;31998;48.798;15.066;2022-07-10T03:06:47;8.97;;;7.13;;
46266;SDS011;31998;48.798;15.066;2022-07-10T03:09:13;7.33;;;6.73;;
46266;SDS011;31998;48.798;15.066;2022-07-10T03:11:38;7.80;;;7.10;;
46266;SDS011;31998;48.798;15.066;2022-07-10T03:14:04;9.87;;;7.00;;
46266;SDS011;31998;48.798;15.066;2022-07-10T03:16:30;7.57;;;7.17;;
46266;SDS011;31998;48.798;15.066;2022-07-10T03:18:56;8.33;;;7.53;;
46266;SDS011;31998;48.798;15.066;2022-07-10T03:21:22;7.10;;;6.60;;
46266;SDS011;31998;48.798;15.066;2022-07-10T03:23:47;7.40;;;6.80;;
46266;SDS011;31998;48.798;15.066;2022-07-10T03:26:13;7.70;;;6.90;;
46266;SDS011;31998;48.798;15.066;2022-07-10T03:28:38;7.77;;;7.20;;
46266;SDS011;31998;48.798;15.066;2022-07-10T03:31:03;8.37;;;7.67;;
46266;SDS011;31998;48.798;15.066;2022-07-10T03:33:29;7.70;;;7.00;;
46266;SDS011;31998;48.798;15.066;2022-07-10T03:35:54;8.60;;;6.30;;
46266;SDS011;31998;48.798;15.066;2022-07-10T03:38:20;7.30;;;6.90;;
46266;SDS011;31998;48.798;15.066;2022-07-10T03:40:45;9.03;;;6.93;;
46266;SDS011;31998;48.798;15.066;2022-07-10T03:43:13;13.30;;;8.20;;
46266;SDS011;31998;48.798;15.066;2022-07-10T03:45:39;7.33;;;6.70;;
46266;SDS011;31998;48.798;15.066;2022-07-10T03:48:04;10.80;;;8.80;;
46266;SDS011;31998;48.798;15.066;2022-07-10T03:50:29;7.40;;;6.73;;
46266;SDS011;31998;48.798;15.066;2022-07-10T03:52:55;7.60;;;7.10;;
46266;SDS011;31998;48.798;15.066;2022-07-10T03:55:20;8.43;;;7.50;;
46266;SDS011;31998;48.798;15.066;2022-07-10T03:57:46;10.47;;;7.43;;
46266;SDS011;31998;48.798;15.066;2022-07-10T04:00:27;7.30;;;6.80;;
46266;SDS011;31998;48.798;15.066;2022-07-10T04:02:57;7.83;;;7.03;;
46266;SDS011;31998;48.798;15.066;2022-07-10T04:05:23;8.10;;;7.40;;
46266;SDS011;31998;48.798;15.066;2022-07-10T04:07:49;9.67;;;7.23;;
46266;SDS011;31998;48.798;15.066;2022-07-10T04:10:15;6.97;;;6.57;;
46266;SDS011;31998;48.798;15.066;2022-07-10T04:12:41;7.73;;;7.00;;
46266;SDS011;31998;48.798;15.066;2022-07-10T04:15:07;8.23;;;7.53;;
46266;SDS011;31998;48.798;15.066;2022-07-10T04:17:32;6.70;;;6.30;;
46266;SDS011;31998;48.798;15.066;2022-07-10T04:19:58;7.30;;;6.70;;
46266;SDS011;31998;48.798;15.066;2022-07-10T04:22:25;7.63;;;6.93;;
46266;SDS011;31998;48.798;15.066;2022-07-10T04:24:51;7.57;;;6.87;;
46266;SDS011;31998;48.798;15.066;2022-07-10T04:27:17;7.30;;;6.63;;
46266;SDS011;31998;48.798;15.066;2022-07-10T04:29:43;7.10;;;6.30;;
46266;SDS011;31998;48.798;15.066;2022-07-10T04:32:08;6.17;;;5.83;;
46266;SDS011;31998;48.798;15.066;2022-07-10T04:34:34;6.03;;;5.73;;
46266;SDS011;31998;48.798;15.066;2022-07-10T04:36:59;9.20;;;6.70;;
46266;SDS011;31998;48.798;15.066;2022-07-10T04:39:25;11.47;;;7.20;;
46266;SDS011;31998;48.798;15.066;2022-07-10T04:41:50;7.00;;;6.60;;
46266;SDS011;31998;48.798;15.066;2022-07-10T04:44:17;10.50;;;7.47;;
46266;SDS011;31998;48.798;15.066;2022-07-10T04:46:43;5.93;;;5.63;;
46266;SDS011;31998;48.798;15.066;2022-07-10T04:49:08;9.20;;;6.50;;
46266;SDS011;31998;48.798;15.066;2022-07-10T04:51:34;6.50;;;6.00;;
46266;SDS011;31998;48.798;15.066;2022-07-10T04:54:00;6.93;;;6.50;;
46266;SDS011;31998;48.798;15.066;2022-07-10T04:56:26;7.23;;;6.63;;
46266;SDS011;31998;48.798;15.066;2022-07-10T04:58:51;7.30;;;6.40;;
46266;SDS011;31998;48.798;15.066;2022-07-10T05:01:17;7.70;;;7.20;;
46266;SDS011;31998;48.798;15.066;2022-07-10T05:03:42;7.93;;;7.20;;
46266;SDS011;31998;48.798;15.066;2022-07-10T05:06:08;7.87;;;7.13;;
46266;SDS011;31998;48.798;15.066;2022-07-10T05:08:33;11.03;;;7.67;;
46266;SDS011;31998;48.798;15.066;2022-07-10T05:10:58;8.50;;;7.73;;
46266;SDS011;31998;48.798;15.066;2022-07-10T05:13:24;7.70;;;7.10;;
46266;SDS011;31998;48.798;15.066;2022-07-10T05:15:49;7.80;;;7.20;;
46266;SDS011;31998;48.798;15.066;2022-07-10T05:18:15;7.57;;;7.17;;
46266;SDS011;31998;48.798;15.066;2022-07-10T05:20:41;7.73;;;6.87;;
46266;SDS011;31998;48.798;15.066;2022-07-10T05:23:08;8.07;;;6.60;;
46266;SDS011;31998;48.798;15.066;2022-07-10T05:25:34;9.90;;;9.20;;
46266;SDS011;31998;48.798;15.066;2022-07-10T05:28:02;9.13;;;8.37;;
46266;SDS011;31998;48.798;15.066;2022-07-10T05:30:29;10.70;;;9.90;;
46266;SDS011;31998;48.798;15.066;2022-07-10T05:32:54;9.20;;;8.50;;
46266;SDS011;31998;48.798;15.066;2022-07-10T05:35:19;11.63;;;8.73;;
46266;SDS011;31998;48.798;15.066;2022-07-10T05:37:45;10.43;;;7.43;;
46266;SDS011;31998;48.798;15.066;2022-07-10T05:40:12;7.97;;;7.30;;
46266;SDS011;31998;48.798;15.066;2022-07-10T05:42:37;8.87;;;7.63;;
46266;SDS011;31998;48.798;15.066;2022-07-10T05:45:03;8.33;;;7.73;;
46266;SDS011;31998;48.798;15.066;2022-07-10T05:47:30;9.37;;;8.53;;
46266;SDS011;31998;48.798;15.066;2022-07-10T05:49:56;8.77;;;8.03;;
46266;SDS011;31998;48.798;15.066;2022-07-10T05:52:21;7.67;;;6.90;;
46266;SDS011;31998;48.798;15.066;2022-07-10T05:54:47;14.13;;;7.57;;
46266;SDS011;31998;48.798;15.066;2022-07-10T05:57:12;7.13;;;6.63;;
46266;SDS011;31998;48.798;15.066;2022-07-10T05:59:37;7.90;;;7.20;;
46266;SDS011;31998;48.798;15.066;2022-07-10T06:02:03;8.40;;;7.67;;
46266;SDS011;31998;48.798;15.066;2022-07-10T06:04:29;8.27;;;7.67;;
46266;SDS011;31998;48.798;15.066;2022-07-10T06:06:54;7.60;;;6.90;;
46266;SDS011;31998;48.798;15.066;2022-07-10T06:09:21;7.60;;;6.47;;
46266;SDS011;31998;48.798;15.066;2022-07-10T06:11:46;6.77;;;6.30;;
46266;SDS011;31998;48.798;15.066;2022-07-10T06:14:13;6.67;;;6.03;;
46266;SDS011;31998;48.798;15.066;2022-07-10T06:16:39;14.60;;;4.70;;
46266;SDS011;31998;48.798;15.066;2022-07-10T06:19:05;4.80;;;4.67;;
46266;SDS011;31998;48.798;15.066;2022-07-10T06:21:30;4.47;;;4.27;;
46266;SDS011;31998;48.798;15.066;2022-07-10T06:23:56;4.80;;;4.47;;
46266;SDS011;31998;48.798;15.066;2022-07-10T06:26:21;6.40;;;5.87;;
46266;SDS011;31998;48.798;15.066;2022-07-10T06:28:47;6.77;;;6.40;;
46266;SDS011;31998;48.798;15.066;2022-07-10T06:31:13;7.33;;;6.23;;
46266;SDS011;31998;48.798;15.066;2022-07-10T06:33:38;7.30;;;6.90;;
46266;SDS011;31998;48.798;15.066;2022-07-10T06:36:04;8.13;;;7.63;;
46266;SDS011;31998;48.798;15.066;2022-07-10T06:38:30;8.23;;;7.63;;
46266;SDS011;31998;48.798;15.066;2022-07-10T06:40:55;10.33;;;9.30;;
46266;SDS011;31998;48.798;15.066;2022-07-10T06:43:21;11.83;;;10.40;;
46266;SDS011;31998;48.798;15.066;2022-07-10T06:45:46;14.03;;;12.20;;
46266;SDS011;31998;48.798;15.066;2022-07-10T06:48:13;11.93;;;11.03;;
46266;SDS011;31998;48.798;15.066;2022-07-10T06:50:39;12.47;;;11.20;;
46266;SDS011;31998;48.798;15.066;2022-07-10T06:53:05;13.20;;;12.00;;
46266;SDS011;31998;48.798;15.066;2022-07-10T06:55:31;16.03;;;14.43;;
46266;SDS011;31998;48.798;15.066;2022-07-10T06:57:57;15.20;;;13.60;;
46266;SDS011;31998;48.798;15.066;2022-07-10T07:00:23;15.57;;;13.40;;
46266;SDS011;31998;48.798;15.066;2022-07-10T07:02:49;21.10;;;13.93;;
46266;SDS011;31998;48.798;15.066;2022-07-10T07:05:15;17.73;;;13.97;;
46266;SDS011;31998;48.798;15.066;2022-07-10T07:07:40;17.23;;;12.37;;
46266;SDS011;31998;48.798;15.066;2022-07-10T07:10:07;10.30;;;9.07;;
46266;SDS011;31998;48.798;15.066;2022-07-10T07:12:33;10.83;;;9.83;;
46266;SDS011;31998;48.798;15.066;2022-07-10T07:14:59;11.20;;;9.93;;
46266;SDS011;31998;48.798;15.066;2022-07-10T07:17:24;13.37;;;7.73;;
46266;SDS011;31998;48.798;15.066;2022-07-10T07:19:58;6.70;;;6.10;;
46266;SDS011;31998;48.798;15.066;2022-07-10T07:22:42;6.53;;;5.20;;
46266;SDS011;31998;48.798;15.066;2022-07-10T07:25:26;15.83;;;6.30;;
46266;SDS011;31998;48.798;15.066;2022-07-10T07:27:51;7.70;;;6.73;;
46266;SDS011;31998;48.798;15.066;2022-07-10T07:30:17;6.37;;;5.90;;
46266;SDS011;31998;48.798;15.066;2022-07-10T07:32:43;6.63;;;4.53;;
46266;SDS011;31998;48.798;15.066;2022-07-10T07:35:10;4.57;;;4.17;;
46266;SDS011;31998;48.798;15.066;2022-07-10T07:37:47;9.20;;;4.90;;
46266;SDS011;31998;48.798;15.066;2022-07-10T07:40:16;10.13;;;4.53;;
46266;SDS011;31998;48.798;15.066;2022-07-10T07:42:45;5.50;;;5.10;;
46266;SDS011;31998;48.798;15.066;2022-07-10T07:45:11;7.50;;;5.50;;
46266;SDS011;31998;48.798;15.066;2022-07-10T07:47:46;10.67;;;5.80;;
46266;SDS011;31998;48.798;15.066;2022-07-10T07:50:24;10.50;;;6.37;;
46266;SDS011;31998;48.798;15.066;2022-07-10T07:52:52;6.83;;;6.40;;
46266;SDS011;31998;48.798;15.066;2022-07-10T07:55:18;6.27;;;5.17;;
46266;SDS011;31998;48.798;15.066;2022-07-10T07:57:45;9.80;;;4.43;;
46266;SDS011;31998;48.798;15.066;2022-07-10T08:00:12;3.90;;;3.70;;
46266;SDS011;31998;48.798;15.066;2022-07-10T08:02:42;9.07;;;3.40;;
46266;SDS011;31998;48.798;15.066;2022-07-10T08:05:08;3.07;;;2.70;;
46266;SDS011;31998;48.798;15.066;2022-07-10T08:07:35;5.80;;;3.40;;
46266;SDS011;31998;48.798;15.066;2022-07-10T08:10:16;6.67;;;2.80;;
46266;SDS011;31998;48.798;15.066;2022-07-10T08:12:44;2.23;;;2.10;;
46266;SDS011;31998;48.798;15.066;2022-07-10T08:15:11;5.60;;;1.53;;
46266;SDS011;31998;48.798;15.066;2022-07-10T08:17:38;2.80;;;1.23;;
46266;SDS011;31998;48.798;15.066;2022-07-10T08:20:04;4.10;;;1.70;;
46266;SDS011;31998;48.798;15.066;2022-07-10T08:22:32;3.57;;;1.50;;
46266;SDS011;31998;48.798;15.066;2022-07-10T08:24:59;5.63;;;1.10;;
46266;SDS011;31998;48.798;15.066;2022-07-10T08:27:24;2.50;;;0.80;;
46266;SDS011;31998;48.798;15.066;2022-07-10T08:29:50;4.33;;;1.53;;
46266;SDS011;31998;48.798;15.066;2022-07-10T08:32:15;2.10;;;1.60;;
46266;SDS011;31998;48.798;15.066;2022-07-10T08:34:41;3.90;;;1.77;;
46266;SDS011;31998;48.798;15.066;2022-07-10T08:37:06;3.27;;;1.77;;
46266;SDS011;31998;48.798;15.066;2022-07-10T08:39:32;2.50;;;1.30;;
46266;SDS011;31998;48.798;15.066;2022-07-10T08:41:58;5.80;;;1.87;;
46266;SDS011;31998;48.798;15.066;2022-07-10T08:44:25;4.90;;;1.70;;
46266;SDS011;31998;48.798;15.066;2022-07-10T08:46:51;6.57;;;1.37;;
46266;SDS011;31998;48.798;15.066;2022-07-10T08:49:16;2.20;;;1.80;;
46266;SDS011;31998;48.798;15.066;2022-07-10T08:51:58;2.90;;;2.00;;
46266;SDS011;31998;48.798;15.066;2022-07-10T08:54:36;4.67;;;1.30;;
46266;SDS011;31998;48.798;15.066;2022-07-10T08:57:04;2.20;;;1.47;;
46266;SDS011;31998;48.798;15.066;2022-07-10T08:59:30;15.60;;;3.80;;
46266;SDS011;31998;48.798;15.066;2022-07-10T09:01:56;7.03;;;2.30;;
46266;SDS011;31998;48.798;15.066;2022-07-10T09:04:22;8.73;;;1.40;;
46266;SDS011;31998;48.798;15.066;2022-07-10T09:06:50;6.87;;;1.17;;
46266;SDS011;31998;48.798;15.066;2022-07-10T09:09:17;2.60;;;1.07;;
46266;SDS011;31998;48.798;15.066;2022-07-10T09:11:43;8.30;;;1.70;;
46266;SDS011;31998;48.798;15.066;2022-07-10T09:14:11;3.97;;;1.30;;
46266;SDS011;31998;48.798;15.066;2022-07-10T09:16:39;7.73;;;1.63;;
46266;SDS011;31998;48.798;15.066;2022-07-10T09:19:21;2.50;;;1.73;;
46266;SDS011;31998;48.798;15.066;2022-07-10T09:21:53;1.80;;;1.20;;
46266;SDS011;31998;48.798;15.066;2022-07-10T09:24:18;1.93;;;1.43;;
46266;SDS011;31998;48.798;15.066;2022-07-10T09:26:57;5.13;;;2.17;;
46266;SDS011;31998;48.798;15.066;2022-07-10T09:29:28;10.97;;;1.80;;
46266;SDS011;31998;48.798;15.066;2022-07-10T09:31:55;1.90;;;1.40;;
46266;SDS011;31998;48.798;15.066;2022-07-10T09:37:19;6.00;;;1.93;;
46266;SDS011;31998;48.798;15.066;2022-07-10T09:40:04;5.80;;;1.53;;
46266;SDS011;31998;48.798;15.066;2022-07-10T09:47:42;7.10;;;1.37;;
46266;SDS011;31998;48.798;15.066;2022-07-10T09:50:29;4.57;;;1.90;;
46266;SDS011;31998;48.798;15.066;2022-07-10T09:53:02;2.20;;;1.23;;
46266;SDS011;31998;48.798;15.066;2022-07-10T09:55:30;1.63;;;1.30;;
46266;SDS011;31998;48.798;15.066;2022-07-10T09:57:57;1.43;;;1.10;;
46266;SDS011;31998;48.798;15.066;2022-07-10T10:00:31;2.97;;;1.27;;
46266;SDS011;31998;48.798;15.066;2022-07-10T10:02:58;2.27;;;1.40;;
46266;SDS011;31998;48.798;15.066;2022-07-10T10:05:28;4.00;;;1.30;;
46266;SDS011;31998;48.798;15.066;2022-07-10T10:08:10;5.40;;;1.40;;
46266;SDS011;31998;48.798;15.066;2022-07-10T10:10:38;3.80;;;1.33;;
46266;SDS011;31998;48.798;15.066;2022-07-10T10:13:08;4.80;;;1.33;;
46266;SDS011;31998;48.798;15.066;2022-07-10T10:15:36;1.60;;;1.10;;
46266;SDS011;31998;48.798;15.066;2022-07-10T10:18:03;4.30;;;1.50;;
46266;SDS011;31998;48.798;15.066;2022-07-10T10:20:28;3.93;;;1.17;;
46266;SDS011;31998;48.798;15.066;2022-07-10T10:23:10;3.77;;;1.40;;
46266;SDS011;31998;48.798;15.066;2022-07-10T10:25:37;5.53;;;1.47;;
46266;SDS011;31998;48.798;15.066;2022-07-10T10:28:04;1.40;;;1.20;;
46266;SDS011;31998;48.798;15.066;2022-07-10T10:30:31;2.13;;;1.00;;
46266;SDS011;31998;48.798;15.066;2022-07-10T10:32:58;1.73;;;1.30;;
46266;SDS011;31998;48.798;15.066;2022-07-10T10:35:43;1.90;;;1.80;;
46266;SDS011;31998;48.798;15.066;2022-07-10T10:38:13;4.10;;;1.30;;
46266;SDS011;31998;48.798;15.066;2022-07-10T10:40:40;2.30;;;1.07;;
46266;SDS011;31998;48.798;15.066;2022-07-10T10:43:22;3.13;;;0.90;;
46266;SDS011;31998;48.798;15.066;2022-07-10T10:45:49;2.30;;;1.10;;
46266;SDS011;31998;48.798;15.066;2022-07-10T10:48:17;2.03;;;0.90;;
46266;SDS011;31998;48.798;15.066;2022-07-10T10:53:25;1.23;;;1.00;;
46266;SDS011;31998;48.798;15.066;2022-07-10T10:58:37;2.40;;;1.30;;
46266;SDS011;31998;48.798;15.066;2022-07-10T11:01:03;2.40;;;1.00;;
46266;SDS011;31998;48.798;15.066;2022-07-10T11:03:30;2.60;;;0.90;;
46266;SDS011;31998;48.798;15.066;2022-07-10T11:05:56;3.33;;;1.13;;
46266;SDS011;31998;48.798;15.066;2022-07-10T11:08:43;5.73;;;0.80;;
46266;SDS011;31998;48.798;15.066;2022-07-10T11:13:56;3.17;;;0.80;;
46266;SDS011;31998;48.798;15.066;2022-07-10T11:16:22;3.13;;;1.00;;
46266;SDS011;31998;48.798;15.066;2022-07-10T11:18:53;0.73;;;0.73;;
46266;SDS011;31998;48.798;15.066;2022-07-10T11:21:22;0.83;;;0.60;;
46266;SDS011;31998;48.798;15.066;2022-07-10T11:26:36;0.80;;;0.80;;
46266;SDS011;31998;48.798;15.066;2022-07-10T11:29:11;0.70;;;0.70;;
46266;SDS011;31998;48.798;15.066;2022-07-10T11:31:37;2.20;;;1.00;;
46266;SDS011;31998;48.798;15.066;2022-07-10T11:34:06;4.00;;;0.80;;
46266;SDS011;31998;48.798;15.066;2022-07-10T11:36:33;1.90;;;1.03;;
46266;SDS011;31998;48.798;15.066;2022-07-10T11:38:59;2.70;;;0.90;;
46266;SDS011;31998;48.798;15.066;2022-07-10T11:41:27;3.37;;;1.00;;
46266;SDS011;31998;48.798;15.066;2022-07-10T11:43:57;3.03;;;1.00;;
46266;SDS011;31998;48.798;15.066;2022-07-10T11:46:28;1.20;;;0.80;;
46266;SDS011;31998;48.798;15.066;2022-07-10T11:48:55;4.43;;;1.17;;
46266;SDS011;31998;48.798;15.066;2022-07-10T11:51:24;4.33;;;1.00;;
46266;SDS011;31998;48.798;15.066;2022-07-10T11:56:20;3.40;;;0.73;;
46266;SDS011;31998;48.798;15.066;2022-07-10T11:58:56;0.83;;;0.83;;
46266;SDS011;31998;48.798;15.066;2022-07-10T12:01:26;1.03;;;0.93;;
46266;SDS011;31998;48.798;15.066;2022-07-10T12:03:56;2.80;;;0.73;;
46266;SDS011;31998;48.798;15.066;2022-07-10T12:06:23;0.77;;;0.50;;
46266;SDS011;31998;48.798;15.066;2022-07-10T12:08:50;4.73;;;0.90;;
46266;SDS011;31998;48.798;15.066;2022-07-10T12:11:16;0.73;;;0.73;;
46266;SDS011;31998;48.798;15.066;2022-07-10T12:13:46;1.27;;;0.80;;
46266;SDS011;31998;48.798;15.066;2022-07-10T12:16:13;1.23;;;0.70;;
46266;SDS011;31998;48.798;15.066;2022-07-10T12:18:39;8.43;;;1.20;;
46266;SDS011;31998;48.798;15.066;2022-07-10T12:21:07;1.90;;;1.10;;
46266;SDS011;31998;48.798;15.066;2022-07-10T12:23:34;2.47;;;1.07;;
46266;SDS011;31998;48.798;15.066;2022-07-10T12:26:00;2.10;;;0.77;;
46266;SDS011;31998;48.798;15.066;2022-07-10T12:28:27;2.70;;;2.50;;
46266;SDS011;31998;48.798;15.066;2022-07-10T12:30:53;1.33;;;0.70;;
46266;SDS011;31998;48.798;15.066;2022-07-10T12:33:19;0.60;;;0.60;;
46266;SDS011;31998;48.798;15.066;2022-07-10T12:35:57;0.40;;;0.40;;
46266;SDS011;31998;48.798;15.066;2022-07-10T12:38:24;0.70;;;0.40;;
46266;SDS011;31998;48.798;15.066;2022-07-10T12:41:13;1.10;;;0.50;;
46266;SDS011;31998;48.798;15.066;2022-07-10T12:43:39;2.00;;;0.70;;
46266;SDS011;31998;48.798;15.066;2022-07-10T12:46:17;2.20;;;0.60;;
46266;SDS011;31998;48.798;15.066;2022-07-10T12:49:03;0.70;;;0.70;;
46266;SDS011;31998;48.798;15.066;2022-07-10T12:51:49;1.20;;;0.57;;
46266;SDS011;31998;48.798;15.066;2022-07-10T12:54:30;3.73;;;0.70;;
46266;SDS011;31998;48.798;15.066;2022-07-10T12:56:59;5.10;;;0.73;;
46266;SDS011;31998;48.798;15.066;2022-07-10T12:59:28;1.13;;;0.57;;
46266;SDS011;31998;48.798;15.066;2022-07-10T13:01:54;0.73;;;0.57;;
46266;SDS011;31998;48.798;15.066;2022-07-10T13:04:23;9.13;;;0.70;;
46266;SDS011;31998;48.798;15.066;2022-07-10T13:06:52;0.60;;;0.40;;
46266;SDS011;31998;48.798;15.066;2022-07-10T13:09:20;0.60;;;0.50;;
46266;SDS011;31998;48.798;15.066;2022-07-10T13:11:47;0.80;;;0.50;;
46266;SDS011;31998;48.798;15.066;2022-07-10T13:14:14;2.93;;;1.70;;
46266;SDS011;31998;48.798;15.066;2022-07-10T13:16:39;1.50;;;0.73;;
46266;SDS011;31998;48.798;15.066;2022-07-10T13:19:05;1.13;;;0.60;;
46266;SDS011;31998;48.798;15.066;2022-07-10T13:21:30;1.33;;;0.77;;
46266;SDS011;31998;48.798;15.066;2022-07-10T13:23:55;1.03;;;0.40;;
46266;SDS011;31998;48.798;15.066;2022-07-10T13:26:21;0.63;;;0.50;;
46266;SDS011;31998;48.798;15.066;2022-07-10T13:28:46;1.17;;;0.40;;
46266;SDS011;31998;48.798;15.066;2022-07-10T13:31:11;1.27;;;0.50;;
46266;SDS011;31998;48.798;15.066;2022-07-10T13:33:37;0.50;;;0.43;;
46266;SDS011;31998;48.798;15.066;2022-07-10T13:36:03;0.83;;;0.50;;
46266;SDS011;31998;48.798;15.066;2022-07-10T13:38:29;0.40;;;0.30;;
46266;SDS011;31998;48.798;15.066;2022-07-10T13:40:55;0.53;;;0.40;;
46266;SDS011;31998;48.798;15.066;2022-07-10T13:43:21;2.43;;;0.87;;
46266;SDS011;31998;48.798;15.066;2022-07-10T13:45:51;2.23;;;0.60;;
46266;SDS011;31998;48.798;15.066;2022-07-10T13:48:17;4.50;;;0.40;;
46266;SDS011;31998;48.798;15.066;2022-07-10T13:50:44;4.33;;;0.50;;
46266;SDS011;31998;48.798;15.066;2022-07-10T13:53:13;0.40;;;0.40;;
46266;SDS011;31998;48.798;15.066;2022-07-10T13:55:39;1.77;;;0.40;;
46266;SDS011;31998;48.798;15.066;2022-07-10T13:58:04;2.87;;;0.50;;
46266;SDS011;31998;48.798;15.066;2022-07-10T14:00:30;0.37;;;0.37;;
46266;SDS011;31998;48.798;15.066;2022-07-10T14:02:56;1.53;;;0.63;;
46266;SDS011;31998;48.798;15.066;2022-07-10T14:05:23;0.50;;;0.40;;
46266;SDS011;31998;48.798;15.066;2022-07-10T14:07:49;0.40;;;0.40;;
46266;SDS011;31998;48.798;15.066;2022-07-10T14:10:14;2.47;;;1.03;;
46266;SDS011;31998;48.798;15.066;2022-07-10T14:12:40;6.00;;;0.70;;
46266;SDS011;31998;48.798;15.066;2022-07-10T14:15:06;3.73;;;3.63;;
46266;SDS011;31998;48.798;15.066;2022-07-10T14:17:32;2.00;;;0.60;;
46266;SDS011;31998;48.798;15.066;2022-07-10T14:19:58;1.27;;;0.67;;
46266;SDS011;31998;48.798;15.066;2022-07-10T14:22:23;1.20;;;0.50;;
46266;SDS011;31998;48.798;15.066;2022-07-10T14:24:50;4.23;;;0.50;;
46266;SDS011;31998;48.798;15.066;2022-07-10T14:27:16;2.40;;;0.40;;
46266;SDS011;31998;48.798;15.066;2022-07-10T14:29:42;1.50;;;0.40;;
46266;SDS011;31998;48.798;15.066;2022-07-10T14:32:08;3.17;;;0.50;;
46266;SDS011;31998;48.798;15.066;2022-07-10T14:34:33;2.40;;;0.80;;
46266;SDS011;31998;48.798;15.066;2022-07-10T14:36:58;9.93;;;0.73;;
46266;SDS011;31998;48.798;15.066;2022-07-10T14:39:24;0.70;;;0.50;;
46266;SDS011;31998;48.798;15.066;2022-07-10T14:41:49;0.43;;;0.40;;
46266;SDS011;31998;48.798;15.066;2022-07-10T14:44:15;0.50;;;0.50;;
46266;SDS011;31998;48.798;15.066;2022-07-10T14:46:40;1.63;;;0.90;;
46266;SDS011;31998;48.798;15.066;2022-07-10T14:49:07;3.57;;;2.50;;
46266;SDS011;31998;48.798;15.066;2022-07-10T14:51:33;0.80;;;0.80;;
46266;SDS011;31998;48.798;15.066;2022-07-10T14:54:00;0.40;;;0.40;;